This is the latest recevied weather packets stored in our database for station/object KD8AZC-13. If no packets are shown the sender has not sent any weather packets the latest 10 day(s).
| Time | Temp. | Humidity | Pressure | Rain* | Wind** | Luminosity | Snow |
|---|---|---|---|---|---|---|---|
| 1778020204 | 26.67° C | 31% | 1006.2 hPa | 0 mm | - | - | - |
| 1778007649 | 28.89° C | 24% | 1006.8 hPa | 0 mm | - | - | - |
| 1778003138 | 27.78° C | 29% | 1008 hPa | 0 mm | - | - | - |
| 1777999525 | 26.11° C | 35% | 1008.8 hPa | 0 mm | - | - | - |
| 1777998621 | 26.11° C | 32% | 1009.1 hPa | 0 mm | - | - | - |
| 1777997718 | 25.56° C | 35% | 1009.4 hPa | 0 mm | - | - | - |
| 1777988759 | 23.33° C | 44% | 1009.3 hPa | 0 mm | - | - | - |
| 1777986950 | 21.11° C | 53% | 1009.8 hPa | 0 mm | - | - | - |
| 1777985141 | 17.78° C | 64% | 1010.3 hPa | 0 mm | - | - | - |
| 1777982430 | 13.89° C | 77% | 1010.5 hPa | 0 mm | - | - | - |
| 1777981524 | 12.78° C | 78% | 1010.7 hPa | 0 mm | - | - | - |
| 1777976128 | 11.11° C | 83% | 1009.8 hPa | 0 mm | - | - | - |
| 1777975233 | 11.11° C | 83% | 1009.6 hPa | 0 mm | - | - | - |
| 1777969806 | 11.11° C | 83% | 1009.5 hPa | 0 mm | - | - | - |
| 1777959947 | 11.67° C | 79% | 1009.3 hPa | 0 mm | - | - | - |
| 1777959044 | 11.67° C | 78% | 1009.4 hPa | 0 mm | - | - | - |
| 1777957237 | 11.67° C | 77% | 1009.3 hPa | 0 mm | - | - | - |
| 1777953630 | 12.78° C | 75% | 1009.1 hPa | 0 mm | - | - | - |
| 1777950937 | 13.33° C | 73% | 1009.3 hPa | 0 mm | - | - | - |
| 1777944629 | 15.56° C | 65% | 1009.2 hPa | 0 mm | - | - | - |
| 1777941022 | 19.44° C | 52% | 1008.5 hPa | 0 mm | - | - | - |
| 1777936519 | 22.22° C | 42% | 1008.2 hPa | 0 mm | - | - | - |
| 1777930216 | 23.89° C | 36% | 1007.6 hPa | 0 mm | - | - | - |
| 1777924810 | 23.89° C | 38% | 1008 hPa | 0 mm | - | - | - |
| 1777923005 | 23.89° C | 36% | 1008.4 hPa | 0 mm | - | - | - |
* Rain latest hour (hover to see other rain measurements)
** Current wind speed in m/s (hover to see current wind gust speed)